< Cyclone 202006 2020 Season Cyclone 202008 >
Cyclone 202007 (Esther)
General InformationDetailed Track InformationTrack Information on Google Maps || ResourceGoogle EarthGE AnimationAtom FeedGeoJSON
Year Month Day Hour Lat. Long. Wind (kt) Gust (kt) Direc. of Major Storm Axis Radius of Major Storm Axis (nm) Radius of Minor Storm Axis (nm) Direc. of Major Gale Axis Radius of Major Gale Axis (nm) Radius of Minor Gale Axis (nm) Image
2020 2 21 00 -13.3 139.8 20 35 symmetric - - symmetric - - Image
2020 2 21 06 -13.3 139.7 20 45 symmetric - - symmetric - - Image
2020 2 21 12 -13.3 139.5 20 45 symmetric - - symmetric - - Image
2020 2 21 18 -13.3 139.2 20 45 symmetric - - symmetric - - Image
2020 2 22 00 -13.4 138.8 20 45 symmetric - - symmetric - - Image
2020 2 22 06 -13.5 138.4 20 45 symmetric - - symmetric - - Image
2020 2 22 12 -13.6 138.2 20 45 symmetric - - symmetric - - Image
2020 2 22 18 -14.0 138.3 20 45 symmetric - - symmetric - - Image
2020 2 23 00 -14.0 138.6 25 45 symmetric - - symmetric - - Image
2020 2 23 06 -14.3 138.9 25 45 symmetric - - symmetric - - Image
2020 2 23 12 -15.4 139.4 30 45 symmetric - - symmetric - - Image
2020 2 23 18 -15.9 139.1 40 55 symmetric - - symmetric - - Image
2020 2 24 00 -16.6 138.7 40 55 symmetric - - symmetric - - Image
2020 2 24 06 -16.6 137.6 40 55 symmetric - - symmetric - - Image
2020 2 24 12 -16.7 137.0 40 50 symmetric - - symmetric - - Image
2020 2 24 18 -16.8 136.4 30 45 symmetric - - symmetric - - Image
2020 2 25 00 -17.1 135.8 30 45 symmetric - - symmetric - - Image
2020 2 25 06 -17.1 135.0 30 45 symmetric - - symmetric - - Image
2020 2 25 12 -17.0 134.2 30 45 symmetric - - symmetric - - Image
2020 2 25 18 -16.7 133.7 30 45 symmetric - - symmetric - - Image
2020 2 26 00 -16.5 133.1 25 45 symmetric - - symmetric - - Image
2020 2 26 06 -16.3 132.6 25 45 symmetric - - symmetric - - Image
2020 2 26 12 -16.0 131.9 20 45 symmetric - - symmetric - - Image
2020 2 26 18 -15.6 131.4 20 40 symmetric - - symmetric - - Image
2020 2 27 00 -15.4 130.7 20 40 symmetric - - symmetric - - Image
2020 2 27 06 -15.2 130.0 20 40 symmetric - - symmetric - - Image
2020 2 27 12 -15.2 129.5 20 40 symmetric - - symmetric - - Image
2020 2 27 18 -15.1 128.9 35 50 symmetric - - symmetric - - Image
2020 2 28 00 -15.0 128.0 40 55 symmetric - - symmetric - - Image
2020 2 28 06 -15.2 127.1 30 45 symmetric - - symmetric - - Image
2020 2 28 09 -15.3 126.7 30 45 symmetric - - symmetric - - Image
2020 2 28 12 -15.4 126.3 30 45 symmetric - - symmetric - - Image
2020 2 28 18 -15.5 125.1 30 45 symmetric - - symmetric - - Image
2020 2 29 00 -15.9 124.4 30 45 symmetric - - symmetric - - Image
2020 2 29 06 -16.6 123.8 40 55 symmetric - - symmetric - - Image
2020 2 29 12 -16.9 123.7 35 50 symmetric - - symmetric - - Image
2020 2 29 18 -17.7 123.6 35 50 symmetric - - symmetric - - Image
2020 3 1 00 -18.1 123.8 30 45 symmetric - - symmetric - - Image
2020 3 1 06 -18.4 124.5 30 45 symmetric - - symmetric - - Image
2020 3 1 12 -18.5 125.2 20 45 symmetric - - symmetric - - Image
2020 3 1 18 -18.7 126.2 20 45 symmetric - - symmetric - - Image
2020 3 2 00 -18.7 126.8 20 45 symmetric - - symmetric - - Image
2020 3 2 06 -18.5 127.8 20 45 symmetric - - symmetric - - Image
2020 3 3 00 -18.6 130.0 20 45 symmetric - - symmetric - - Image
2020 3 3 06 -18.9 130.8 20 45 symmetric - - symmetric - - Image
2020 3 3 12 -19.1 132.5 20 45 symmetric - - symmetric - - Image
2020 3 4 00 -19.7 134.0 20 45 symmetric - - symmetric - - Image
< Cyclone 202006 2020 Season Cyclone 202008 >

Help